sensor_id;sensor_type;location;lat;lon;timestamp;P1;durP1;ratioP1;P2;durP2;ratioP2
85375;SDS011;75780;43.986;22.860;2024-02-26T00:00:33;31.08;;;16.55;;
85375;SDS011;75780;43.986;22.860;2024-02-26T00:03:00;34.22;;;16.85;;
85375;SDS011;75780;43.986;22.860;2024-02-26T00:05:26;28.33;;;15.13;;
85375;SDS011;75780;43.986;22.860;2024-02-26T00:07:51;32.15;;;15.65;;
85375;SDS011;75780;43.986;22.860;2024-02-26T00:10:17;33.80;;;16.92;;
85375;SDS011;75780;43.986;22.860;2024-02-26T00:12:42;35.97;;;16.48;;
85375;SDS011;75780;43.986;22.860;2024-02-26T00:15:08;32.90;;;16.58;;
85375;SDS011;75780;43.986;22.860;2024-02-26T00:17:35;25.65;;;14.23;;
85375;SDS011;75780;43.986;22.860;2024-02-26T00:20:01;30.65;;;14.88;;
85375;SDS011;75780;43.986;22.860;2024-02-26T00:22:33;34.53;;;15.80;;
85375;SDS011;75780;43.986;22.860;2024-02-26T00:24:58;39.28;;;16.38;;
85375;SDS011;75780;43.986;22.860;2024-02-26T00:27:24;28.67;;;14.20;;
85375;SDS011;75780;43.986;22.860;2024-02-26T00:29:49;32.63;;;15.15;;
85375;SDS011;75780;43.986;22.860;2024-02-26T00:32:15;31.48;;;15.55;;
85375;SDS011;75780;43.986;22.860;2024-02-26T00:34:40;29.67;;;13.85;;
85375;SDS011;75780;43.986;22.860;2024-02-26T00:37:07;31.58;;;14.45;;
85375;SDS011;75780;43.986;22.860;2024-02-26T00:39:32;30.63;;;15.85;;
85375;SDS011;75780;43.986;22.860;2024-02-26T00:41:58;32.03;;;15.77;;
85375;SDS011;75780;43.986;22.860;2024-02-26T00:44:23;27.25;;;13.77;;
85375;SDS011;75780;43.986;22.860;2024-02-26T00:46:49;24.50;;;13.77;;
85375;SDS011;75780;43.986;22.860;2024-02-26T00:49:14;39.42;;;16.75;;
85375;SDS011;75780;43.986;22.860;2024-02-26T00:51:40;31.50;;;13.85;;
85375;SDS011;75780;43.986;22.860;2024-02-26T00:54:05;26.73;;;13.20;;
85375;SDS011;75780;43.986;22.860;2024-02-26T00:56:31;28.73;;;15.10;;
85375;SDS011;75780;43.986;22.860;2024-02-26T00:58:56;33.60;;;15.55;;
85375;SDS011;75780;43.986;22.860;2024-02-26T01:01:22;32.03;;;14.07;;
85375;SDS011;75780;43.986;22.860;2024-02-26T01:03:47;31.17;;;14.10;;
85375;SDS011;75780;43.986;22.860;2024-02-26T01:06:12;31.00;;;15.30;;
85375;SDS011;75780;43.986;22.860;2024-02-26T01:08:38;24.42;;;14.07;;
85375;SDS011;75780;43.986;22.860;2024-02-26T01:11:04;27.05;;;13.50;;
85375;SDS011;75780;43.986;22.860;2024-02-26T01:13:29;29.35;;;13.90;;
85375;SDS011;75780;43.986;22.860;2024-02-26T01:15:55;28.77;;;14.73;;
85375;SDS011;75780;43.986;22.860;2024-02-26T01:18:20;26.95;;;13.43;;
85375;SDS011;75780;43.986;22.860;2024-02-26T01:20:46;23.67;;;12.65;;
85375;SDS011;75780;43.986;22.860;2024-02-26T01:23:12;28.77;;;13.75;;
85375;SDS011;75780;43.986;22.860;2024-02-26T01:25:37;29.38;;;14.57;;
85375;SDS011;75780;43.986;22.860;2024-02-26T01:28:04;25.30;;;13.27;;
85375;SDS011;75780;43.986;22.860;2024-02-26T01:30:30;29.65;;;13.00;;
85375;SDS011;75780;43.986;22.860;2024-02-26T01:32:56;31.45;;;15.20;;
85375;SDS011;75780;43.986;22.860;2024-02-26T01:35:21;31.90;;;13.40;;
85375;SDS011;75780;43.986;22.860;2024-02-26T01:37:47;29.65;;;14.63;;
85375;SDS011;75780;43.986;22.860;2024-02-26T01:40:12;30.23;;;15.35;;
85375;SDS011;75780;43.986;22.860;2024-02-26T01:42:42;31.17;;;15.90;;
85375;SDS011;75780;43.986;22.860;2024-02-26T01:45:12;30.23;;;15.65;;
85375;SDS011;75780;43.986;22.860;2024-02-26T01:47:59;29.55;;;14.82;;
85375;SDS011;75780;43.986;22.860;2024-02-26T01:50:25;29.40;;;13.82;;
85375;SDS011;75780;43.986;22.860;2024-02-26T01:52:52;32.40;;;15.85;;
85375;SDS011;75780;43.986;22.860;2024-02-26T01:55:20;31.55;;;15.57;;
85375;SDS011;75780;43.986;22.860;2024-02-26T01:57:49;29.75;;;14.13;;
85375;SDS011;75780;43.986;22.860;2024-02-26T02:00:16;27.95;;;14.55;;
85375;SDS011;75780;43.986;22.860;2024-02-26T02:02:43;28.20;;;13.57;;
85375;SDS011;75780;43.986;22.860;2024-02-26T02:05:12;22.95;;;12.25;;
85375;SDS011;75780;43.986;22.860;2024-02-26T02:07:45;29.45;;;12.98;;
85375;SDS011;75780;43.986;22.860;2024-02-26T02:10:11;26.77;;;13.35;;
85375;SDS011;75780;43.986;22.860;2024-02-26T02:12:37;29.20;;;14.70;;
85375;SDS011;75780;43.986;22.860;2024-02-26T02:15:05;35.95;;;14.68;;
85375;SDS011;75780;43.986;22.860;2024-02-26T02:17:31;32.95;;;15.93;;
85375;SDS011;75780;43.986;22.860;2024-02-26T02:19:57;36.88;;;14.82;;
85375;SDS011;75780;43.986;22.860;2024-02-26T02:22:22;25.63;;;13.38;;
85375;SDS011;75780;43.986;22.860;2024-02-26T02:24:51;26.25;;;14.55;;
85375;SDS011;75780;43.986;22.860;2024-02-26T02:27:17;28.20;;;13.43;;
85375;SDS011;75780;43.986;22.860;2024-02-26T02:29:44;25.50;;;13.65;;
85375;SDS011;75780;43.986;22.860;2024-02-26T02:32:10;31.02;;;13.02;;
85375;SDS011;75780;43.986;22.860;2024-02-26T02:34:35;26.30;;;13.07;;
85375;SDS011;75780;43.986;22.860;2024-02-26T02:37:01;27.95;;;12.98;;
85375;SDS011;75780;43.986;22.860;2024-02-26T02:39:27;25.35;;;12.02;;
85375;SDS011;75780;43.986;22.860;2024-02-26T02:41:53;30.80;;;14.52;;
85375;SDS011;75780;43.986;22.860;2024-02-26T02:44:19;27.45;;;13.20;;
85375;SDS011;75780;43.986;22.860;2024-02-26T02:46:44;26.63;;;12.43;;
85375;SDS011;75780;43.986;22.860;2024-02-26T02:49:10;28.75;;;15.20;;
85375;SDS011;75780;43.986;22.860;2024-02-26T02:51:36;31.88;;;13.93;;
85375;SDS011;75780;43.986;22.860;2024-02-26T02:54:02;29.77;;;13.52;;
85375;SDS011;75780;43.986;22.860;2024-02-26T02:56:27;29.65;;;14.00;;
85375;SDS011;75780;43.986;22.860;2024-02-26T02:58:53;31.73;;;13.93;;
85375;SDS011;75780;43.986;22.860;2024-02-26T03:01:18;24.60;;;12.20;;
85375;SDS011;75780;43.986;22.860;2024-02-26T03:03:44;25.38;;;13.68;;
85375;SDS011;75780;43.986;22.860;2024-02-26T03:06:09;29.85;;;13.13;;
85375;SDS011;75780;43.986;22.860;2024-02-26T03:08:35;32.30;;;14.45;;
85375;SDS011;75780;43.986;22.860;2024-02-26T03:11:03;29.65;;;13.73;;
85375;SDS011;75780;43.986;22.860;2024-02-26T03:13:29;26.20;;;12.30;;
85375;SDS011;75780;43.986;22.860;2024-02-26T03:15:54;24.40;;;12.35;;
85375;SDS011;75780;43.986;22.860;2024-02-26T03:18:20;22.77;;;12.48;;
85375;SDS011;75780;43.986;22.860;2024-02-26T03:20:47;24.88;;;11.90;;
85375;SDS011;75780;43.986;22.860;2024-02-26T03:23:12;27.67;;;14.43;;
85375;SDS011;75780;43.986;22.860;2024-02-26T03:25:41;31.17;;;14.88;;
85375;SDS011;75780;43.986;22.860;2024-02-26T03:31:29;31.30;;;15.27;;
85375;SDS011;75780;43.986;22.860;2024-02-26T03:33:55;35.90;;;16.75;;
85375;SDS011;75780;43.986;22.860;2024-02-26T03:36:20;33.28;;;14.95;;
85375;SDS011;75780;43.986;22.860;2024-02-26T03:38:49;40.13;;;17.77;;
85375;SDS011;75780;43.986;22.860;2024-02-26T03:41:14;31.25;;;16.50;;
85375;SDS011;75780;43.986;22.860;2024-02-26T03:43:40;44.75;;;23.95;;
85375;SDS011;75780;43.986;22.860;2024-02-26T03:46:09;42.20;;;19.63;;
85375;SDS011;75780;43.986;22.860;2024-02-26T03:48:36;34.55;;;16.42;;
85375;SDS011;75780;43.986;22.860;2024-02-26T03:51:02;28.90;;;15.38;;
85375;SDS011;75780;43.986;22.860;2024-02-26T03:53:28;31.30;;;15.95;;
85375;SDS011;75780;43.986;22.860;2024-02-26T03:55:53;28.98;;;15.40;;
85375;SDS011;75780;43.986;22.860;2024-02-26T03:58:20;31.20;;;14.27;;
85375;SDS011;75780;43.986;22.860;2024-02-26T04:00:46;28.13;;;14.65;;
85375;SDS011;75780;43.986;22.860;2024-02-26T04:03:12;22.98;;;11.95;;
85375;SDS011;75780;43.986;22.860;2024-02-26T04:05:38;30.50;;;15.55;;
85375;SDS011;75780;43.986;22.860;2024-02-26T04:08:04;29.38;;;14.80;;
85375;SDS011;75780;43.986;22.860;2024-02-26T04:10:32;32.35;;;15.25;;
85375;SDS011;75780;43.986;22.860;2024-02-26T04:12:57;32.50;;;16.58;;
85375;SDS011;75780;43.986;22.860;2024-02-26T04:15:23;30.55;;;13.60;;
85375;SDS011;75780;43.986;22.860;2024-02-26T04:17:48;28.88;;;13.75;;
85375;SDS011;75780;43.986;22.860;2024-02-26T04:20:15;34.70;;;14.15;;
85375;SDS011;75780;43.986;22.860;2024-02-26T04:22:41;30.80;;;15.48;;
85375;SDS011;75780;43.986;22.860;2024-02-26T04:25:06;32.83;;;15.23;;
85375;SDS011;75780;43.986;22.860;2024-02-26T04:27:32;26.27;;;14.57;;
85375;SDS011;75780;43.986;22.860;2024-02-26T04:29:58;34.30;;;16.90;;
85375;SDS011;75780;43.986;22.860;2024-02-26T04:32:23;38.63;;;18.40;;
85375;SDS011;75780;43.986;22.860;2024-02-26T04:34:49;30.30;;;14.15;;
85375;SDS011;75780;43.986;22.860;2024-02-26T04:37:14;30.13;;;14.55;;
85375;SDS011;75780;43.986;22.860;2024-02-26T04:39:39;31.30;;;14.13;;
85375;SDS011;75780;43.986;22.860;2024-02-26T04:42:05;106.32;;;48.92;;
85375;SDS011;75780;43.986;22.860;2024-02-26T04:44:30;76.82;;;33.67;;
85375;SDS011;75780;43.986;22.860;2024-02-26T04:46:56;40.60;;;20.05;;
85375;SDS011;75780;43.986;22.860;2024-02-26T04:49:21;56.45;;;24.55;;
85375;SDS011;75780;43.986;22.860;2024-02-26T04:51:47;54.90;;;23.65;;
85375;SDS011;75780;43.986;22.860;2024-02-26T04:54:13;45.10;;;22.77;;
85375;SDS011;75780;43.986;22.860;2024-02-26T04:56:38;39.78;;;19.55;;
85375;SDS011;75780;43.986;22.860;2024-02-26T04:59:04;37.17;;;17.98;;
85375;SDS011;75780;43.986;22.860;2024-02-26T05:01:29;42.67;;;17.83;;
85375;SDS011;75780;43.986;22.860;2024-02-26T05:03:55;38.55;;;16.35;;
85375;SDS011;75780;43.986;22.860;2024-02-26T05:06:20;37.80;;;19.02;;
85375;SDS011;75780;43.986;22.860;2024-02-26T05:08:46;50.50;;;22.02;;
85375;SDS011;75780;43.986;22.860;2024-02-26T05:11:11;45.95;;;21.42;;
85375;SDS011;75780;43.986;22.860;2024-02-26T05:13:37;38.83;;;19.05;;
85375;SDS011;75780;43.986;22.860;2024-02-26T05:16:02;76.10;;;37.90;;
85375;SDS011;75780;43.986;22.860;2024-02-26T05:18:28;76.80;;;40.25;;
85375;SDS011;75780;43.986;22.860;2024-02-26T05:20:53;79.15;;;38.60;;
85375;SDS011;75780;43.986;22.860;2024-02-26T05:23:19;64.43;;;29.33;;
85375;SDS011;75780;43.986;22.860;2024-02-26T05:25:44;57.45;;;28.02;;
85375;SDS011;75780;43.986;22.860;2024-02-26T05:28:12;43.17;;;22.00;;
85375;SDS011;75780;43.986;22.860;2024-02-26T05:30:37;43.17;;;19.27;;
85375;SDS011;75780;43.986;22.860;2024-02-26T05:33:05;52.15;;;23.40;;
85375;SDS011;75780;43.986;22.860;2024-02-26T05:35:30;48.90;;;24.52;;
85375;SDS011;75780;43.986;22.860;2024-02-26T05:37:56;44.45;;;22.90;;
85375;SDS011;75780;43.986;22.860;2024-02-26T05:40:21;38.42;;;21.13;;
85375;SDS011;75780;43.986;22.860;2024-02-26T05:42:46;49.25;;;22.33;;
85375;SDS011;75780;43.986;22.860;2024-02-26T05:45:14;51.75;;;25.23;;
85375;SDS011;75780;43.986;22.860;2024-02-26T05:47:39;40.70;;;19.40;;
85375;SDS011;75780;43.986;22.860;2024-02-26T05:50:08;39.10;;;20.15;;
85375;SDS011;75780;43.986;22.860;2024-02-26T05:52:36;57.92;;;27.08;;
85375;SDS011;75780;43.986;22.860;2024-02-26T05:55:05;98.82;;;40.33;;
85375;SDS011;75780;43.986;22.860;2024-02-26T05:57:31;70.05;;;30.00;;
85375;SDS011;75780;43.986;22.860;2024-02-26T05:59:57;69.97;;;31.77;;
85375;SDS011;75780;43.986;22.860;2024-02-26T06:02:25;79.38;;;34.88;;
85375;SDS011;75780;43.986;22.860;2024-02-26T06:04:51;73.75;;;34.42;;
85375;SDS011;75780;43.986;22.860;2024-02-26T06:07:17;61.15;;;28.50;;
85375;SDS011;75780;43.986;22.860;2024-02-26T06:09:42;34.10;;;17.05;;
85375;SDS011;75780;43.986;22.860;2024-02-26T06:12:08;42.88;;;22.48;;
85375;SDS011;75780;43.986;22.860;2024-02-26T06:14:33;44.22;;;21.95;;
85375;SDS011;75780;43.986;22.860;2024-02-26T06:16:59;37.72;;;18.65;;
85375;SDS011;75780;43.986;22.860;2024-02-26T06:19:24;43.00;;;22.42;;
85375;SDS011;75780;43.986;22.860;2024-02-26T06:21:49;40.28;;;22.63;;
85375;SDS011;75780;43.986;22.860;2024-02-26T06:24:16;45.97;;;23.60;;
85375;SDS011;75780;43.986;22.860;2024-02-26T06:26:41;51.60;;;24.02;;
85375;SDS011;75780;43.986;22.860;2024-02-26T06:29:07;120.63;;;53.03;;
85375;SDS011;75780;43.986;22.860;2024-02-26T06:31:32;127.07;;;51.58;;
85375;SDS011;75780;43.986;22.860;2024-02-26T06:33:57;125.90;;;56.47;;
85375;SDS011;75780;43.986;22.860;2024-02-26T06:36:23;132.85;;;56.28;;
85375;SDS011;75780;43.986;22.860;2024-02-26T06:38:48;127.15;;;55.00;;
85375;SDS011;75780;43.986;22.860;2024-02-26T06:41:14;119.05;;;52.42;;
85375;SDS011;75780;43.986;22.860;2024-02-26T06:43:40;109.55;;;48.90;;
85375;SDS011;75780;43.986;22.860;2024-02-26T06:46:05;73.03;;;35.55;;
85375;SDS011;75780;43.986;22.860;2024-02-26T06:48:32;67.60;;;31.13;;
85375;SDS011;75780;43.986;22.860;2024-02-26T06:50:57;61.25;;;29.58;;
85375;SDS011;75780;43.986;22.860;2024-02-26T06:53:23;61.65;;;31.60;;
85375;SDS011;75780;43.986;22.860;2024-02-26T06:55:48;65.63;;;31.15;;
85375;SDS011;75780;43.986;22.860;2024-02-26T06:58:15;57.88;;;29.55;;
85375;SDS011;75780;43.986;22.860;2024-02-26T07:00:41;45.92;;;23.05;;
85375;SDS011;75780;43.986;22.860;2024-02-26T07:03:06;44.13;;;21.70;;
85375;SDS011;75780;43.986;22.860;2024-02-26T07:05:32;39.95;;;20.15;;
85375;SDS011;75780;43.986;22.860;2024-02-26T07:07:57;39.97;;;21.38;;
85375;SDS011;75780;43.986;22.860;2024-02-26T07:10:23;48.22;;;21.42;;
85375;SDS011;75780;43.986;22.860;2024-02-26T07:12:48;39.35;;;19.98;;
85375;SDS011;75780;43.986;22.860;2024-02-26T07:15:13;49.85;;;24.02;;
85375;SDS011;75780;43.986;22.860;2024-02-26T07:17:39;46.10;;;22.13;;
85375;SDS011;75780;43.986;22.860;2024-02-26T07:20:12;49.40;;;22.85;;
85375;SDS011;75780;43.986;22.860;2024-02-26T07:22:37;61.00;;;24.63;;
85375;SDS011;75780;43.986;22.860;2024-02-26T07:25:03;51.42;;;23.63;;
85375;SDS011;75780;43.986;22.860;2024-02-26T07:27:29;46.50;;;21.70;;
85375;SDS011;75780;43.986;22.860;2024-02-26T07:29:54;38.22;;;19.17;;
85375;SDS011;75780;43.986;22.860;2024-02-26T07:32:20;49.78;;;21.58;;
85375;SDS011;75780;43.986;22.860;2024-02-26T07:34:45;36.90;;;17.45;;
85375;SDS011;75780;43.986;22.860;2024-02-26T07:37:11;41.88;;;18.00;;
85375;SDS011;75780;43.986;22.860;2024-02-26T07:39:36;41.17;;;19.48;;
85375;SDS011;75780;43.986;22.860;2024-02-26T07:42:02;45.60;;;19.10;;
85375;SDS011;75780;43.986;22.860;2024-02-26T07:44:28;39.40;;;18.85;;
85375;SDS011;75780;43.986;22.860;2024-02-26T07:46:54;32.83;;;17.50;;
85375;SDS011;75780;43.986;22.860;2024-02-26T07:49:19;34.40;;;16.75;;
85375;SDS011;75780;43.986;22.860;2024-02-26T07:51:45;37.60;;;19.75;;
85375;SDS011;75780;43.986;22.860;2024-02-26T07:54:10;42.70;;;22.73;;
85375;SDS011;75780;43.986;22.860;2024-02-26T07:56:36;30.80;;;17.30;;
85375;SDS011;75780;43.986;22.860;2024-02-26T07:59:01;30.50;;;15.45;;
85375;SDS011;75780;43.986;22.860;2024-02-26T08:01:27;40.83;;;18.15;;
85375;SDS011;75780;43.986;22.860;2024-02-26T08:03:53;36.13;;;17.73;;
85375;SDS011;75780;43.986;22.860;2024-02-26T08:06:19;32.45;;;17.00;;
85375;SDS011;75780;43.986;22.860;2024-02-26T08:08:44;32.28;;;15.77;;
85375;SDS011;75780;43.986;22.860;2024-02-26T08:11:10;29.38;;;16.38;;
85375;SDS011;75780;43.986;22.860;2024-02-26T08:13:35;36.22;;;17.90;;
85375;SDS011;75780;43.986;22.860;2024-02-26T08:16:01;35.97;;;17.05;;
85375;SDS011;75780;43.986;22.860;2024-02-26T08:18:26;34.25;;;18.15;;
85375;SDS011;75780;43.986;22.860;2024-02-26T08:20:52;31.95;;;17.75;;
85375;SDS011;75780;43.986;22.860;2024-02-26T08:23:17;33.05;;;16.75;;
85375;SDS011;75780;43.986;22.860;2024-02-26T08:25:43;37.33;;;17.23;;
85375;SDS011;75780;43.986;22.860;2024-02-26T08:28:08;31.05;;;16.50;;
85375;SDS011;75780;43.986;22.860;2024-02-26T08:30:36;33.05;;;16.27;;
85375;SDS011;75780;43.986;22.860;2024-02-26T08:33:21;36.92;;;18.55;;
85375;SDS011;75780;43.986;22.860;2024-02-26T08:35:47;85.38;;;36.58;;
85375;SDS011;75780;43.986;22.860;2024-02-26T08:38:12;37.72;;;18.55;;
85375;SDS011;75780;43.986;22.860;2024-02-26T08:40:38;56.13;;;23.25;;
85375;SDS011;75780;43.986;22.860;2024-02-26T08:43:03;45.15;;;21.38;;
85375;SDS011;75780;43.986;22.860;2024-02-26T08:45:29;27.25;;;13.95;;
85375;SDS011;75780;43.986;22.860;2024-02-26T08:47:54;35.67;;;17.77;;
85375;SDS011;75780;43.986;22.860;2024-02-26T08:50:20;33.38;;;16.83;;
85375;SDS011;75780;43.986;22.860;2024-02-26T08:52:45;28.90;;;15.48;;
85375;SDS011;75780;43.986;22.860;2024-02-26T08:55:15;38.45;;;17.60;;
85375;SDS011;75780;43.986;22.860;2024-02-26T08:57:40;37.20;;;17.02;;
85375;SDS011;75780;43.986;22.860;2024-02-26T09:00:06;34.85;;;17.60;;
85375;SDS011;75780;43.986;22.860;2024-02-26T09:02:32;59.58;;;23.83;;
85375;SDS011;75780;43.986;22.860;2024-02-26T09:04:58;35.72;;;18.45;;
85375;SDS011;75780;43.986;22.860;2024-02-26T09:07:23;34.63;;;17.77;;
85375;SDS011;75780;43.986;22.860;2024-02-26T09:09:49;37.03;;;19.77;;
85375;SDS011;75780;43.986;22.860;2024-02-26T09:12:14;31.40;;;16.30;;
85375;SDS011;75780;43.986;22.860;2024-02-26T09:14:40;33.75;;;17.35;;
85375;SDS011;75780;43.986;22.860;2024-02-26T09:17:05;35.13;;;18.40;;
85375;SDS011;75780;43.986;22.860;2024-02-26T09:19:32;40.15;;;19.67;;
85375;SDS011;75780;43.986;22.860;2024-02-26T09:21:58;37.88;;;18.17;;
85375;SDS011;75780;43.986;22.860;2024-02-26T09:24:24;34.50;;;18.90;;
85375;SDS011;75780;43.986;22.860;2024-02-26T09:26:50;37.58;;;19.88;;
85375;SDS011;75780;43.986;22.860;2024-02-26T09:29:15;32.53;;;17.83;;
85375;SDS011;75780;43.986;22.860;2024-02-26T09:31:41;38.50;;;17.27;;
85375;SDS011;75780;43.986;22.860;2024-02-26T09:34:07;41.58;;;24.77;;
85375;SDS011;75780;43.986;22.860;2024-02-26T09:36:36;35.53;;;19.45;;
85375;SDS011;75780;43.986;22.860;2024-02-26T09:39:01;35.90;;;18.95;;
85375;SDS011;75780;43.986;22.860;2024-02-26T09:41:28;44.05;;;20.73;;
85375;SDS011;75780;43.986;22.860;2024-02-26T09:43:57;39.42;;;19.55;;
85375;SDS011;75780;43.986;22.860;2024-02-26T09:46:27;53.83;;;34.80;;
85375;SDS011;75780;43.986;22.860;2024-02-26T09:48:53;40.75;;;21.13;;
85375;SDS011;75780;43.986;22.860;2024-02-26T09:51:20;44.17;;;19.70;;
85375;SDS011;75780;43.986;22.860;2024-02-26T09:53:49;41.50;;;20.40;;
85375;SDS011;75780;43.986;22.860;2024-02-26T09:56:17;42.53;;;20.40;;
85375;SDS011;75780;43.986;22.860;2024-02-26T09:58:43;32.17;;;17.08;;
85375;SDS011;75780;43.986;22.860;2024-02-26T10:01:13;51.30;;;22.88;;
85375;SDS011;75780;43.986;22.860;2024-02-26T10:03:42;49.55;;;23.55;;
85375;SDS011;75780;43.986;22.860;2024-02-26T10:06:09;39.55;;;22.23;;
85375;SDS011;75780;43.986;22.860;2024-02-26T10:08:35;33.53;;;18.50;;
85375;SDS011;75780;43.986;22.860;2024-02-26T10:11:04;35.17;;;17.23;;
85375;SDS011;75780;43.986;22.860;2024-02-26T10:13:32;38.83;;;19.05;;
85375;SDS011;75780;43.986;22.860;2024-02-26T10:15:57;41.72;;;19.60;;
85375;SDS011;75780;43.986;22.860;2024-02-26T10:18:24;32.05;;;17.55;;
85375;SDS011;75780;43.986;22.860;2024-02-26T10:21:07;34.08;;;18.42;;
85375;SDS011;75780;43.986;22.860;2024-02-26T10:23:33;32.28;;;18.45;;
85375;SDS011;75780;43.986;22.860;2024-02-26T10:25:58;33.97;;;17.80;;
85375;SDS011;75780;43.986;22.860;2024-02-26T10:28:24;34.97;;;18.45;;
85375;SDS011;75780;43.986;22.860;2024-02-26T10:30:50;35.25;;;17.80;;
85375;SDS011;75780;43.986;22.860;2024-02-26T10:33:17;38.22;;;18.30;;
85375;SDS011;75780;43.986;22.860;2024-02-26T10:35:46;36.30;;;19.15;;
85375;SDS011;75780;43.986;22.860;2024-02-26T10:38:12;34.00;;;18.35;;
85375;SDS011;75780;43.986;22.860;2024-02-26T10:40:38;34.08;;;18.73;;
85375;SDS011;75780;43.986;22.860;2024-02-26T10:43:04;39.30;;;20.40;;
85375;SDS011;75780;43.986;22.860;2024-02-26T10:45:29;33.58;;;18.80;;
85375;SDS011;75780;43.986;22.860;2024-02-26T10:47:56;39.55;;;18.40;;
85375;SDS011;75780;43.986;22.860;2024-02-26T10:50:22;34.83;;;19.10;;
85375;SDS011;75780;43.986;22.860;2024-02-26T10:52:47;34.10;;;18.92;;
85375;SDS011;75780;43.986;22.860;2024-02-26T10:55:15;36.90;;;19.67;;
85375;SDS011;75780;43.986;22.860;2024-02-26T10:57:45;33.28;;;18.65;;
85375;SDS011;75780;43.986;22.860;2024-02-26T11:00:14;40.33;;;19.23;;
85375;SDS011;75780;43.986;22.860;2024-02-26T11:02:40;39.13;;;20.17;;
85375;SDS011;75780;43.986;22.860;2024-02-26T11:05:07;35.42;;;19.27;;
85375;SDS011;75780;43.986;22.860;2024-02-26T11:07:36;39.30;;;19.85;;
85375;SDS011;75780;43.986;22.860;2024-02-26T11:10:03;36.00;;;17.98;;
85375;SDS011;75780;43.986;22.860;2024-02-26T11:12:31;28.48;;;17.05;;
85375;SDS011;75780;43.986;22.860;2024-02-26T11:14:57;32.75;;;16.13;;
85375;SDS011;75780;43.986;22.860;2024-02-26T11:17:26;34.20;;;17.98;;
85375;SDS011;75780;43.986;22.860;2024-02-26T11:19:57;31.00;;;16.08;;
85375;SDS011;75780;43.986;22.860;2024-02-26T11:22:23;33.45;;;15.55;;
85375;SDS011;75780;43.986;22.860;2024-02-26T11:24:56;45.80;;;23.02;;
85375;SDS011;75780;43.986;22.860;2024-02-26T11:27:32;36.08;;;17.45;;
85375;SDS011;75780;43.986;22.860;2024-02-26T11:30:04;34.50;;;16.98;;
85375;SDS011;75780;43.986;22.860;2024-02-26T11:32:33;34.72;;;17.60;;
85375;SDS011;75780;43.986;22.860;2024-02-26T11:35:00;36.55;;;18.67;;
85375;SDS011;75780;43.986;22.860;2024-02-26T11:37:26;32.67;;;17.95;;
85375;SDS011;75780;43.986;22.860;2024-02-26T11:39:52;33.97;;;18.33;;
85375;SDS011;75780;43.986;22.860;2024-02-26T11:42:18;33.08;;;17.58;;
85375;SDS011;75780;43.986;22.860;2024-02-26T11:44:49;31.88;;;17.38;;
85375;SDS011;75780;43.986;22.860;2024-02-26T11:47:18;39.28;;;18.90;;
85375;SDS011;75780;43.986;22.860;2024-02-26T11:49:46;34.97;;;18.98;;
85375;SDS011;75780;43.986;22.860;2024-02-26T11:52:12;48.15;;;26.20;;
85375;SDS011;75780;43.986;22.860;2024-02-26T11:57:27;30.77;;;18.58;;
85375;SDS011;75780;43.986;22.860;2024-02-26T11:59:56;40.03;;;18.85;;
85375;SDS011;75780;43.986;22.860;2024-02-26T12:02:47;31.15;;;17.27;;
85375;SDS011;75780;43.986;22.860;2024-02-26T12:05:17;36.47;;;18.73;;
85375;SDS011;75780;43.986;22.860;2024-02-26T12:07:49;32.80;;;17.63;;
85375;SDS011;75780;43.986;22.860;2024-02-26T12:10:22;29.20;;;17.58;;
85375;SDS011;75780;43.986;22.860;2024-02-26T12:12:52;31.13;;;18.52;;
85375;SDS011;75780;43.986;22.860;2024-02-26T12:15:38;31.63;;;17.25;;
85375;SDS011;75780;43.986;22.860;2024-02-26T12:18:05;28.73;;;16.95;;
85375;SDS011;75780;43.986;22.860;2024-02-26T12:20:32;27.33;;;16.50;;
85375;SDS011;75780;43.986;22.860;2024-02-26T12:22:58;29.65;;;17.17;;
85375;SDS011;75780;43.986;22.860;2024-02-26T12:25:24;30.13;;;19.23;;
85375;SDS011;75780;43.986;22.860;2024-02-26T12:27:53;35.10;;;17.92;;
85375;SDS011;75780;43.986;22.860;2024-02-26T12:30:19;31.83;;;16.05;;
85375;SDS011;75780;43.986;22.860;2024-02-26T12:32:47;28.90;;;16.30;;
85375;SDS011;75780;43.986;22.860;2024-02-26T12:35:13;30.75;;;15.57;;
85375;SDS011;75780;43.986;22.860;2024-02-26T12:37:40;30.13;;;17.13;;
85375;SDS011;75780;43.986;22.860;2024-02-26T12:40:06;35.90;;;18.63;;
85375;SDS011;75780;43.986;22.860;2024-02-26T12:42:35;34.17;;;17.15;;
85375;SDS011;75780;43.986;22.860;2024-02-26T12:45:05;22.63;;;12.57;;
85375;SDS011;75780;43.986;22.860;2024-02-26T12:47:35;62.35;;;19.13;;
85375;SDS011;75780;43.986;22.860;2024-02-26T12:50:02;26.35;;;15.32;;
85375;SDS011;75780;43.986;22.860;2024-02-26T12:52:29;29.00;;;15.60;;
85375;SDS011;75780;43.986;22.860;2024-02-26T12:54:59;31.98;;;17.48;;
85375;SDS011;75780;43.986;22.860;2024-02-26T12:57:26;33.60;;;17.05;;
85375;SDS011;75780;43.986;22.860;2024-02-26T12:59:54;30.50;;;17.45;;
85375;SDS011;75780;43.986;22.860;2024-02-26T13:02:19;25.48;;;16.52;;
85375;SDS011;75780;43.986;22.860;2024-02-26T13:04:45;30.55;;;15.93;;
85375;SDS011;75780;43.986;22.860;2024-02-26T13:07:11;28.63;;;15.52;;
85375;SDS011;75780;43.986;22.860;2024-02-26T13:09:38;33.08;;;18.08;;
85375;SDS011;75780;43.986;22.860;2024-02-26T13:12:04;35.00;;;16.90;;
85375;SDS011;75780;43.986;22.860;2024-02-26T13:14:32;27.00;;;16.17;;
85375;SDS011;75780;43.986;22.860;2024-02-26T13:16:59;38.25;;;19.02;;
85375;SDS011;75780;43.986;22.860;2024-02-26T13:19:25;35.63;;;19.65;;
85375;SDS011;75780;43.986;22.860;2024-02-26T13:21:51;33.50;;;19.02;;
85375;SDS011;75780;43.986;22.860;2024-02-26T13:24:16;31.38;;;18.48;;
85375;SDS011;75780;43.986;22.860;2024-02-26T13:26:44;29.58;;;17.23;;
85375;SDS011;75780;43.986;22.860;2024-02-26T13:29:16;29.15;;;16.42;;
85375;SDS011;75780;43.986;22.860;2024-02-26T13:31:42;33.67;;;19.05;;
85375;SDS011;75780;43.986;22.860;2024-02-26T13:34:08;33.67;;;18.95;;
85375;SDS011;75780;43.986;22.860;2024-02-26T13:36:33;36.88;;;19.27;;
85375;SDS011;75780;43.986;22.860;2024-02-26T13:39:00;37.22;;;20.02;;
85375;SDS011;75780;43.986;22.860;2024-02-26T13:41:26;42.28;;;20.77;;
85375;SDS011;75780;43.986;22.860;2024-02-26T13:43:52;36.28;;;19.40;;
85375;SDS011;75780;43.986;22.860;2024-02-26T13:46:18;36.28;;;18.80;;
85375;SDS011;75780;43.986;22.860;2024-02-26T13:48:43;35.95;;;18.92;;
85375;SDS011;75780;43.986;22.860;2024-02-26T13:51:09;36.80;;;19.35;;
85375;SDS011;75780;43.986;22.860;2024-02-26T13:53:35;40.25;;;19.90;;
85375;SDS011;75780;43.986;22.860;2024-02-26T13:56:00;30.15;;;17.73;;
85375;SDS011;75780;43.986;22.860;2024-02-26T13:58:26;35.53;;;19.30;;
85375;SDS011;75780;43.986;22.860;2024-02-26T14:00:55;35.00;;;18.42;;
85375;SDS011;75780;43.986;22.860;2024-02-26T14:03:21;30.58;;;18.63;;
85375;SDS011;75780;43.986;22.860;2024-02-26T14:05:47;37.70;;;19.98;;
85375;SDS011;75780;43.986;22.860;2024-02-26T14:08:12;45.53;;;25.83;;
85375;SDS011;75780;43.986;22.860;2024-02-26T14:10:38;62.95;;;36.08;;